Weather Underground History page Text

Daily Summary for August 18, 2018 Units:  English    Metric   Both
« Previous Day
Next Day »
Daily Weekly Monthly Yearly Custom
  Current: High: Low: Average:
Temperature: 73.1 °F TemperatureF °F 71.5 °F 75.5 °F
Dew Point: 71.9 °F DewpointF °F 70.6 °F 73.1 °F
Humidity: 96 % Humidity % 74 % 92 %
Wind Speed: 0 mph WindSpeedMPH mph 0 mph 0.4 mph
Wind Gust: 0 mph WindSpeedGustMPH mph - -
Wind:Calm - - WSW
Pressure: 29.93 in PressureIn in 29.90 in -
Precipitation: 0.39 in      
Historical Graphs
 
 
Tabular Data for August 18, 2018
Time Temperature Dew Point Pressure Wind Wind Speed Wind Gust Humidity Rainfall Rate (Hourly)
TemperatureF °F DewpointF °F PressureIn in Calm     Humidity % HourlyPrecipIn in
00:04 73.5 °F 72.3 °F 30.01 in Calm     96 % 0 in
00:09 73.6 °F 72.4 °F 30.01 in Calm     96 % 0 in
00:14 73.5 °F 72.3 °F 30.01 in Calm     96 % 0 in
00:19 73.5 °F 72.3 °F 30.01 in Calm     96 % 0 in
00:24 73.4 °F 72.2 °F 30.01 in NW 1.2 mph   96 % 0.01 in
00:29 73.4 °F 72.2 °F 30.01 in Calm     96 % 0.01 in
00:34 73.4 °F 72.2 °F 30.01 in Calm     96 % 0.01 in
00:39 73.4 °F 72.2 °F 30.01 in Calm     96 % 0.01 in
00:44 73.4 °F 72.2 °F 30.01 in Calm     96 % 0.01 in
00:49 73.5 °F 72.3 °F 30.02 in Calm     96 % 0.01 in
00:54 73.6 °F 72.4 °F 30.02 in Calm     96 % 0.01 in
00:59 73.5 °F 72.3 °F 30.02 in Calm     96 % 0.01 in
01:04 73.6 °F 72.7 °F 30.02 in Calm     97 % 0.01 in
01:09 73.6 °F 72.7 °F 30.01 in Calm     97 % 0.01 in
01:14 73.6 °F 72.7 °F 30.01 in Calm     97 % 0.01 in
01:19 73.6 °F 72.7 °F 30.00 in Calm     97 % 0.01 in
01:24 73.7 °F 72.8 °F 30.00 in Calm     97 % 0 in
01:29 73.6 °F 72.7 °F 30.00 in Calm     97 % 0 in
01:34 73.6 °F 72.7 °F 30.00 in Calm     97 % 0 in
01:39 73.6 °F 72.7 °F 30.00 in Calm     97 % 0 in
01:44 73.5 °F 72.6 °F 30.00 in Calm     97 % 0 in
01:49 73.5 °F 72.6 °F 30.00 in Calm     97 % 0 in
01:54 73.5 °F 72.6 °F 30.00 in Calm     97 % 0 in
01:59 73.5 °F 72.6 °F 30.00 in Calm     97 % 0 in
02:04 73.5 °F 72.6 °F 30.00 in Calm     97 % 0 in
02:09 73.5 °F 72.6 °F 30.00 in Calm     97 % 0 in
02:14 73.5 °F 72.6 °F 30.00 in Calm     97 % 0 in
02:19 73.4 °F 72.5 °F 30.00 in Calm     97 % 0 in
02:24 73.4 °F 72.5 °F 29.99 in Calm     97 % 0 in
02:29 73.4 °F 72.5 °F 29.99 in Calm     97 % 0 in
02:34 73.4 °F 72.5 °F 29.99 in Calm     97 % 0 in
02:39 73.4 °F 72.5 °F 29.99 in Calm     97 % 0 in
02:44 73.4 °F 72.5 °F 29.99 in Calm     97 % 0 in
02:49 73.4 °F 72.5 °F 29.99 in Calm     97 % 0 in
02:54 73.4 °F 72.5 °F 29.99 in Calm     97 % 0 in
02:59 73.5 °F 72.6 °F 29.98 in Calm     97 % 0 in
03:04 73.4 °F 72.5 °F 29.99 in Calm     97 % 0 in
03:09 73.4 °F 72.5 °F 29.99 in Calm     97 % 0 in
03:14 73.4 °F 72.5 °F 29.98 in Calm     97 % 0 in
03:19 73.4 °F 72.5 °F 29.99 in Calm     97 % 0.01 in
03:24 73.5 °F 72.6 °F 29.99 in Calm     97 % 0.01 in
03:29 73.5 °F 72.6 °F 29.99 in Calm     97 % 0.01 in
03:34 73.5 °F 72.6 °F 29.99 in Calm     97 % 0.01 in
03:39 73.5 °F 72.6 °F 29.99 in Calm     97 % 0.02 in
03:44 73.5 °F 72.6 °F 29.99 in Calm     97 % 0.03 in
03:49 73.5 °F 72.6 °F 29.99 in Calm     97 % 0.03 in
03:54 73.5 °F 72.6 °F 29.98 in Calm     97 % 0.03 in
03:59 73.5 °F 72.6 °F 29.98 in Calm     97 % 0.03 in
04:04 73.5 °F 72.6 °F 29.98 in Calm     97 % 0.04 in
04:09 73.5 °F 72.6 °F 29.98 in Calm     97 % 0.04 in
04:15 73.5 °F 72.6 °F 29.98 in WSW 1.2 mph 0.1 mph 97 % 0.04 in
04:19 73.5 °F 72.6 °F 29.98 in Calm     97 % 0.03 in
04:24 73.5 °F 72.6 °F 29.98 in Calm     97 % 0.03 in
04:29 73.5 °F 72.6 °F 29.98 in Calm     97 % 0.03 in
04:34 73.5 °F 72.6 °F 29.98 in Calm     97 % 0.03 in
04:39 73.4 °F 72.5 °F 29.98 in Calm     97 % 0.02 in
04:44 73.5 °F 72.6 °F 29.98 in Calm     97 % 0.01 in
04:49 73.5 °F 72.6 °F 29.98 in Calm     97 % 0.01 in
04:54 73.4 °F 72.5 °F 29.98 in Calm     97 % 0.01 in
04:59 73.4 °F 72.5 °F 29.98 in West 1.2 mph 0.1 mph 97 % 0.01 in
05:04 73.4 °F 72.5 °F 29.98 in Calm     97 % 0 in
05:09 73.4 °F 72.5 °F 29.98 in WSW 1.2 mph 0.5 mph 97 % 0 in
05:14 73.4 °F 72.5 °F 29.98 in Calm     97 % 0 in
05:19 73.3 °F 72.7 °F 29.98 in Calm     98 % 0 in
05:24 73.3 °F 72.7 °F 29.98 in Calm     98 % 0 in
05:29 73.2 °F 72.6 °F 29.98 in Calm     98 % 0.01 in
05:34 73.2 °F 72.6 °F 29.98 in Calm     98 % 0.01 in
05:39 73.2 °F 72.6 °F 29.98 in Calm     98 % 0.02 in
05:44 73.2 °F 72.6 °F 29.98 in Calm   0.1 mph 98 % 0.02 in
05:49 73.1 °F 72.5 °F 29.98 in East 1.2 mph   98 % 0.02 in
05:54 73.1 °F 72.5 °F 29.98 in Calm     98 % 0.02 in
05:59 73 °F 72.4 °F 29.99 in Calm     98 % 0.03 in
06:04 73 °F 72.4 °F 29.98 in Calm   0.1 mph 98 % 0.03 in
06:09 72.9 °F 72 °F 29.98 in WSW 1.2 mph 0.2 mph 97 % 0.03 in
06:14 72.9 °F 72 °F 29.99 in NW 1 mph 0.1 mph 97 % 0.03 in
06:19 72.8 °F 71.9 °F 29.99 in West 2.3 mph 0.3 mph 97 % 0.03 in
06:24 72.8 °F 71.9 °F 29.99 in Calm     97 % 0.04 in
06:29 72.8 °F 71.9 °F 29.99 in Calm     97 % 0.03 in
06:34 72.7 °F 71.8 °F 29.99 in WSW 1.2 mph 0.2 mph 97 % 0.03 in
06:39 72.6 °F 71.7 °F 29.99 in West 2.3 mph 0.1 mph 97 % 0.02 in
06:44 72.4 °F 71.5 °F 29.99 in SW 3.5 mph 0.8 mph 97 % 0.03 in
06:49 72.3 °F 71.4 °F 29.98 in WSW 1.2 mph 0.1 mph 97 % 0.04 in
06:54 72.3 °F 71.4 °F 29.99 in WSW 1.2 mph 0.3 mph 97 % 0.06 in
06:59 72.1 °F 71.2 °F 29.99 in West 2.3 mph 0.5 mph 97 % 0.08 in
07:05 71.9 °F 71 °F 30.00 in South 3.5 mph 0.7 mph 97 % 0.17 in
07:09 71.8 °F 70.9 °F 29.99 in WSW 1.2 mph 0.4 mph 97 % 0.21 in
07:14 71.7 °F 70.8 °F 30.00 in WSW 2.3 mph 0.4 mph 97 % 0.23 in
07:19 71.6 °F 70.7 °F 30.00 in West 2.3 mph 1.3 mph 97 % 0.23 in
07:24 71.6 °F 70.7 °F 30.00 in WSW 2.3 mph 1 mph 97 % 0.23 in
07:29 71.5 °F 70.6 °F 30.00 in WSW 1.2 mph 0.1 mph 97 % 0.23 in
07:34 71.5 °F 70.6 °F 30.00 in West 1 mph 0.1 mph 97 % 0.23 in
07:39 71.5 °F 70.6 °F 30.00 in West 1.2 mph 0.2 mph 97 % 0.23 in
07:44 71.5 °F 70.6 °F 30.00 in WSW 1.2 mph   97 % 0.22 in
07:49 71.5 °F 70.6 °F 30.00 in Calm     97 % 0.21 in
07:54 71.6 °F 70.7 °F 30.01 in Calm     97 % 0.19 in
07:59 71.7 °F 70.8 °F 30.01 in West 2.3 mph   97 % 0.16 in
08:04 71.7 °F 70.8 °F 30.01 in Calm     97 % 0.09 in
08:09 71.7 °F 70.8 °F 30.01 in Calm     97 % 0.03 in
08:14 71.8 °F 70.9 °F 30.01 in Calm     97 % 0.01 in
08:19 71.9 °F 71 °F 30.01 in Calm     97 % 0.01 in
08:24 72 °F 71.1 °F 30.01 in Calm     97 % 0 in
08:29 72.1 °F 71.2 °F 30.01 in Calm     97 % 0 in
08:34 72.4 °F 71.8 °F 30.01 in Calm     98 % 0 in
08:39 72.8 °F 72.2 °F 30.01 in Calm     98 % 0 in
08:44 73 °F 72.4 °F 30.01 in Calm     98 % 0 in
08:49 73.3 °F 72.7 °F 30.01 in Calm     98 % 0 in
08:54 73.5 °F 72.9 °F 30.01 in Calm     98 % 0 in
08:59 73.7 °F 73.1 °F 30.01 in Calm     98 % 0 in
09:04 73.8 °F 73.2 °F 30.01 in Calm     98 % 0 in
09:09 73.9 °F 73.3 °F 30.01 in Calm     98 % 0 in
09:14 74 °F 73.4 °F 30.01 in Calm     98 % 0 in
09:19 74.3 °F 73.7 °F 30.01 in Calm     98 % 0 in
09:24 74.5 °F 73.9 °F 30.01 in NW 1.2 mph   98 % 0 in
09:29 74.7 °F 74.1 °F 30.01 in Calm     98 % 0 in
09:34 74.9 °F 74.3 °F 30.01 in Calm     98 % 0 in
09:39 75.1 °F 74.5 °F 30.01 in Calm     98 % 0 in
09:44 75.3 °F 74.7 °F 30.01 in Calm     98 % 0 in
09:49 75.7 °F 75.1 °F 30.01 in SW 1.2 mph   98 % 0 in
09:54 75.9 °F 75.3 °F 30.01 in Calm     98 % 0 in
09:59 76 °F 75.1 °F 30.01 in Calm     97 % 0 in
10:04 76 °F 75.1 °F 30.01 in Calm     97 % 0 in
10:09 75.9 °F 75 °F 30.01 in Calm     97 % 0 in
10:14 75.9 °F 75 °F 30.00 in Calm     97 % 0 in
10:19 76.1 °F 74.9 °F 30.00 in Calm     96 % 0 in
10:24 76.4 °F 75.2 °F 30.00 in Calm     96 % 0 in
10:29 76.8 °F 75.6 °F 30.00 in Calm     96 % 0 in
10:34 77.1 °F 75.2 °F 30.00 in WSW 1.2 mph   94 % 0 in
10:39 77.5 °F 75 °F 29.99 in WSW 1.2 mph   92 % 0 in
10:44 77.5 °F 74.7 °F 30.00 in Calm     91 % 0 in
10:49 78.1 °F 74.9 °F 29.99 in Calm     90 % 0 in
10:54 78 °F 74.8 °F 29.99 in Calm     90 % 0 in
10:59 78 °F 74.2 °F 29.99 in SSW 1.2 mph   88 % 0 in
11:04 79.1 °F 75.6 °F 29.99 in Calm     89 % 0 in
11:09 78.7 °F 74.8 °F 29.99 in SSW 1.2 mph 0.5 mph 88 % 0 in
11:15 78.7 °F 73.8 °F 29.98 in SSE 1.2 mph   85 % 0 in
11:19 79.2 °F 75.3 °F 29.98 in Calm     88 % 0 in
11:24 80.4 °F 76.5 °F 29.98 in Calm     88 % 0 in
11:29 80.5 °F 75.6 °F 29.98 in South 2.3 mph   85 % 0 in
11:34 80.7 °F 74.3 °F 29.98 in Calm     81 % 0 in
11:39 80.6 °F 74.6 °F 29.97 in Calm     82 % 0 in
11:44 81.3 °F 76 °F 29.98 in Calm     84 % 0 in
11:49 81.7 °F 75.7 °F 29.98 in Calm     82 % 0 in
11:54 82.3 °F 75.1 °F 29.98 in Calm     79 % 0 in
11:59 81.9 °F 74.7 °F 29.98 in Calm     79 % 0 in
12:04 82.1 °F 74.6 °F 29.97 in Calm     78 % 0 in
12:09 82 °F 74.1 °F 29.97 in Calm     77 % 0 in
12:14 81.2 °F 74.1 °F 29.97 in Calm     79 % 0 in
12:19 81.1 °F 75.4 °F 29.97 in Calm     83 % 0 in
12:24 82.7 °F 76.6 °F 29.97 in Calm     82 % 0 in
12:29 82.9 °F 74.6 °F 29.96 in Calm     76 % 0 in
12:34 82.3 °F 75.1 °F 29.96 in Calm     79 % 0 in
12:39 81.5 °F 74.7 °F 29.96 in Calm     80 % 0 in
12:44 80.9 °F 74.9 °F 29.96 in Calm     82 % 0 in
12:49 80 °F 74.7 °F 29.96 in Calm     84 % 0 in
12:54 79.1 °F 75.2 °F 29.97 in Calm     88 % 0.01 in
12:59 77.8 °F 75 °F 29.96 in Calm     91 % 0.05 in
13:04 77.4 °F 75.5 °F 29.96 in Calm     94 % 0.06 in
13:09 77.5 °F 76 °F 29.96 in Calm     95 % 0.06 in
13:14 78.1 °F 76.2 °F 29.96 in Calm     94 % 0.06 in
13:19 78 °F 76.1 °F 29.96 in Calm     94 % 0.06 in
13:24 77.5 °F 75.6 °F 29.96 in Calm     94 % 0.06 in
13:29 77.7 °F 75.8 °F 29.96 in Calm     94 % 0.06 in
13:34 78.3 °F 76.7 °F 29.96 in Calm     95 % 0.06 in
13:39 78.5 °F 76.3 °F 29.95 in Calm     93 % 0.06 in
13:44 78.4 °F 76.5 °F 29.95 in Calm     94 % 0.06 in
13:49 78.6 °F 76.7 °F 29.95 in Calm     94 % 0.06 in
13:54 79.6 °F 77.1 °F 29.95 in NNW 3.5 mph 0.6 mph 92 % 0.05 in
13:59 80.6 °F 76.7 °F 29.95 in South 1.2 mph   88 % 0.01 in
14:04 81.5 °F 78.3 °F 29.94 in Calm     90 % 0 in
14:09 81.1 °F 77.2 °F 29.94 in WNW 1.2 mph   88 % 0 in
14:14 81.9 °F 76.2 °F 29.94 in WSW 2.3 mph 0.8 mph 83 % 0 in
14:19 82.1 °F 77.5 °F 29.94 in Calm     86 % 0 in
14:25 81 °F 75.7 °F 29.94 in South 1.2 mph   84 % 0 in
14:29 80.1 °F 75.2 °F 29.94 in Calm     85 % 0 in
14:34 79.9 °F 75.7 °F 29.94 in West 1.2 mph 0.1 mph 87 % 0 in
14:39 79.6 °F 75 °F 29.94 in West 2.3 mph   86 % 0 in
14:44 79.5 °F 75.3 °F 29.93 in West 2.3 mph 0.1 mph 87 % 0 in
14:49 79.4 °F 75.2 °F 29.93 in Calm     87 % 0 in
14:54 79.5 °F 74.9 °F 29.93 in Calm     86 % 0 in
14:59 79.3 °F 74.7 °F 29.93 in West 1.2 mph 0.1 mph 86 % 0 in
15:04 79.7 °F 75.5 °F 29.92 in Calm     87 % 0 in
15:09 80.5 °F 75.9 °F 29.92 in Calm     86 % 0 in
15:14 82.3 °F 75.9 °F 29.92 in Calm     81 % 0 in
15:19 82.8 °F 75.2 °F 29.92 in Calm     78 % 0 in
15:24 82.4 °F 76 °F 29.91 in Calm     81 % 0 in
15:29 81.5 °F 75.5 °F 29.91 in West 1.2 mph   82 % 0 in
15:34 81.5 °F 75.5 °F 29.91 in Calm     82 % 0 in
15:39 82.9 °F 75.7 °F 29.91 in SSW 1.2 mph   79 % 0 in
15:44 83.7 °F 75.3 °F 29.92 in Calm   0.3 mph 76 % 0 in
15:49 83.7 °F 74.9 °F 29.92 in Calm     75 % 0 in
15:55 83.1 °F 75.1 °F 29.91 in Calm     77 % 0 in
15:59 83 °F 75 °F 29.91 in SE 3.5 mph 1.1 mph 77 % 0 in
16:04 82.5 °F 74.9 °F 29.91 in West 1.2 mph 0.4 mph 78 % 0 in
16:09 83 °F 75 °F 29.91 in West 2.3 mph 0.7 mph 77 % 0 in
16:14 83.8 °F 75 °F 29.91 in West 3.5 mph 1 mph 75 % 0 in
16:19 84 °F 75.6 °F 29.91 in West 1 mph   76 % 0 in
16:24 83.4 °F 74.6 °F 29.91 in West 1.2 mph 0.4 mph 75 % 0 in
16:29 81.3 °F 72.2 °F 29.92 in NW 1.2 mph 0.8 mph 74 % 0 in
16:34 79 °F 71.6 °F 29.92 in NW 2.3 mph 0.9 mph 78 % 0 in
16:39 77.6 °F 71.3 °F 29.92 in NW 2.3 mph 0.6 mph 81 % 0 in
16:44 76.7 °F 71.8 °F 29.92 in NW 3.5 mph 1.7 mph 85 % 0 in
16:50 75.7 °F 71.9 °F 29.91 in NNW 3.5 mph 0.5 mph 88 % 0.01 in
16:55 74.8 °F 71.7 °F 29.91 in Calm     90 % 0.01 in
16:59 74.3 °F 71.5 °F 29.92 in NNW 1.2 mph 0.1 mph 91 % 0.01 in
17:04 74.4 °F 72.2 °F 29.92 in Calm     93 % 0.01 in
17:09 74.9 °F 72.7 °F 29.91 in North 1.2 mph 0.1 mph 93 % 0.01 in
17:14 74.9 °F 72.4 °F 29.91 in Calm     92 % 0.01 in
17:19 74.8 °F 72.3 °F 29.91 in Calm     92 % 0.01 in
17:24 74.7 °F 72.2 °F 29.91 in Calm     92 % 0.01 in
17:29 74.5 °F 72.3 °F 29.91 in Calm     93 % 0.01 in
17:34 75 °F 72.8 °F 29.91 in Calm     93 % 0.01 in
17:39 75.6 °F 73.4 °F 29.91 in Calm     93 % 0.01 in
17:44 76.1 °F 73.6 °F 29.91 in Calm     92 % 0.01 in
17:50 76 °F 73.5 °F 29.91 in Calm     92 % 0 in
17:54 76 °F 73.5 °F 29.91 in Calm     92 % 0 in
17:59 75.8 °F 73.6 °F 29.91 in Calm     93 % 0 in
18:04 75.8 °F 73.6 °F 29.91 in Calm     93 % 0 in
18:09 76 °F 73.5 °F 29.91 in Calm     92 % 0 in
18:14 76.5 °F 73.3 °F 29.90 in Calm     90 % 0 in
18:19 76.7 °F 73.9 °F 29.91 in West 1.2 mph   91 % 0 in
18:24 76.5 °F 73.7 °F 29.91 in Calm     91 % 0 in
18:29 76.5 °F 73.7 °F 29.91 in Calm     91 % 0 in
18:34 76.5 °F 74 °F 29.91 in Calm     92 % 0 in
18:39 76.4 °F 73.9 °F 29.91 in Calm     92 % 0 in
18:44 76.3 °F 73.8 °F 29.90 in Calm     92 % 0 in
18:49 76.1 °F 73.6 °F 29.91 in Calm     92 % 0 in
18:54 76 °F 73.2 °F 29.90 in Calm     91 % 0 in
18:59 75.8 °F 73 °F 29.90 in Calm     91 % 0 in
19:04 75.7 °F 72.9 °F 29.90 in Calm     91 % 0 in
19:09 75.5 °F 72.7 °F 29.90 in Calm     91 % 0 in
19:14 75.5 °F 72.4 °F 29.90 in Calm     90 % 0 in
19:19 75.5 °F 72.4 °F 29.90 in Calm     90 % 0 in
19:25 75.5 °F 72.7 °F 29.90 in Calm     91 % 0 in
19:29 75.2 °F 72.4 °F 29.91 in Calm     91 % 0 in
19:34 75 °F 72.8 °F 29.91 in Calm     93 % 0 in
19:39 75 °F 72.8 °F 29.91 in Calm     93 % 0 in
19:44 74.9 °F 72.7 °F 29.91 in Calm     93 % 0 in
19:49 74.7 °F 72.5 °F 29.91 in Calm     93 % 0 in
19:54 74.8 °F 72.6 °F 29.92 in Calm     93 % 0 in
19:59 74.8 °F 72.6 °F 29.92 in Calm     93 % 0 in
20:04 74.7 °F 72.5 °F 29.93 in Calm     93 % 0 in
20:09 74.7 °F 72.9 °F 29.93 in Calm     94 % 0 in
20:14 74.6 °F 72.8 °F 29.93 in Calm     94 % 0 in
20:19 74.5 °F 72.3 °F 29.93 in Calm     93 % 0 in
20:25 74.4 °F 72.2 °F 29.93 in Calm     93 % 0 in
20:29 74.3 °F 72.1 °F 29.92 in Calm     93 % 0 in
20:34 74.3 °F 72.5 °F 29.92 in Calm     94 % 0 in
20:39 74.1 °F 72.3 °F 29.93 in Calm     94 % 0 in
20:44 74 °F 72.2 °F 29.93 in Calm     94 % 0 in
20:49 74 °F 72.2 °F 29.93 in Calm     94 % 0 in
20:54 73.9 °F 72.1 °F 29.93 in Calm     94 % 0 in
20:59 73.7 °F 72.2 °F 29.93 in Calm     95 % 0 in
21:04 73.6 °F 72.1 °F 29.93 in Calm     95 % 0 in
21:09 73.5 °F 72 °F 29.93 in Calm     95 % 0 in
21:14 73.3 °F 71.8 °F 29.93 in Calm     95 % 0 in
21:19 73.2 °F 71.7 °F 29.93 in Calm     95 % 0 in
21:24 73.2 °F 72 °F 29.93 in Calm     96 % 0 in
21:29 73 °F 71.8 °F 29.94 in Calm     96 % 0 in
21:34 73.1 °F 71.9 °F 29.93 in Calm     96 % 0 in
Murfreesboro Weather Live
Compliments of Weather Underground - 3.75 mb

Script developed by  Jim McMurry - jmcmurry@mwt.net Adapted for the template by  Wim van der Kuil - Leuven-Template.eu